Time;durP1;ratioP1;P1;durP2;ratioP2;P2;SDS_P1;SDS_P2;PMS_P1;PMS_P2;Temp;Humidity;BMP_temperature;BMP_pressure;BME280_temperature;BME280_humidity;BME280_pressure;Samples;Min_cycle;Max_cycle;Signal;HPM_P1;HPM_P2
2021/06/06 00:02:04;;;;;;;3.38;1.30;;;;;;;29.53;35.37;97089.94;5024260;28;20407;-34
2021/06/06 00:04:30;;;;;;;1.95;1.08;;;;;;;29.53;35.56;97089.94;5034042;28;20090;-32
2021/06/06 00:06:55;;;;;;;2.47;1.20;;;;;;;29.54;35.39;97091.63;5032475;28;20021;-37
2021/06/06 00:09:21;;;;;;;1.50;1.15;;;;;;;29.51;35.55;97086.50;5033863;28;20029;-35
2021/06/06 00:11:51;;;;;;;1.40;1.20;;;;;;;29.52;35.41;97082.97;5030373;28;20061;-33
2021/06/06 00:14:21;;;;;;;1.98;1.10;;;;;;;29.52;35.33;97077.69;5026506;28;20416;-34
2021/06/06 00:16:49;;;;;;;1.88;1.20;;;;;;;29.52;35.54;97077.69;5022889;28;20032;-35
2021/06/06 00:19:15;;;;;;;1.70;1.05;;;;;;;29.52;35.35;97077.69;5034321;28;20106;-35
2021/06/06 00:21:41;;;;;;;2.95;1.40;;;;;;;29.52;35.37;97077.69;5039365;28;20779;-34
2021/06/06 00:24:07;;;;;;;3.67;1.30;;;;;;;29.52;35.45;97075.06;5033663;28;20127;-32
2021/06/06 00:26:32;;;;;;;2.13;1.13;;;;;;;29.53;35.26;97068.81;5047563;28;20111;-35
2021/06/06 00:28:58;;;;;;;3.65;1.40;;;;;;;29.51;35.34;97066.28;5031066;28;20037;-34
2021/06/06 00:31:23;;;;;;;6.15;1.20;;;;;;;29.52;35.26;97072.41;5024620;28;21690;-35
2021/06/06 00:33:49;;;;;;;1.17;1.08;;;;;;;29.52;35.17;97067.13;5034408;28;20225;-35
2021/06/06 00:36:15;;;;;;;1.27;0.90;;;;;;;29.52;35.41;97072.41;5030141;28;20060;-34
2021/06/06 00:38:43;;;;;;;3.25;1.10;;;;;;;29.52;35.31;97067.13;5020204;28;20362;-34
2021/06/06 00:41:08;;;;;;;1.50;1.30;;;;;;;29.51;35.40;97075.94;5030291;28;20159;-31
2021/06/06 00:43:34;;;;;;;1.30;1.08;;;;;;;29.52;35.22;97067.94;5009144;28;20554;-32
2021/06/06 00:45:59;;;;;;;1.35;1.20;;;;;;;29.51;35.46;97071.53;5033502;28;20044;-36
2021/06/06 00:48:25;;;;;;;1.55;1.20;;;;;;;29.52;35.23;97069.78;5030806;28;20287;-33
2021/06/06 00:50:53;;;;;;;1.23;1.02;;;;;;;29.51;35.37;97070.66;5036550;28;20282;-36
2021/06/06 00:53:40;;;;;;;1.80;1.15;;;;;;;29.50;35.29;97069.81;5027367;28;20621;-37
2021/06/06 00:56:07;;;;;;;2.45;1.30;;;;;;;29.51;35.03;97070.66;5030936;28;20418;-36
2021/06/06 00:58:32;;;;;;;1.25;1.08;;;;;;;29.51;35.39;97070.66;5031309;28;20044;-36
2021/06/06 01:00:58;;;;;;;1.50;1.27;;;;;;;29.51;35.31;97070.66;5034326;28;20045;-34
2021/06/06 01:03:25;;;;;;;1.33;1.23;;;;;;;29.50;35.37;97066.31;5031323;28;21493;-34
2021/06/06 01:05:59;;;;;;;0.98;0.93;;;;;;;29.50;35.09;97074.25;5024270;28;20351;-39
2021/06/06 01:08:25;;;;;;;2.47;1.20;;;;;;;29.50;35.39;97068.97;5035308;28;20021;-36
2021/06/06 01:10:58;;;;;;;1.20;1.10;;;;;;;29.49;35.11;97073.41;5031720;28;20036;-37
2021/06/06 01:13:27;;;;;;;1.95;1.10;;;;;;;29.50;35.18;97068.97;5027574;28;20625;-38
2021/06/06 01:16:06;;;;;;;1.10;1.00;;;;;;;29.49;35.24;97068.16;5033134;28;20032;-36
2021/06/06 01:18:33;;;;;;;2.35;1.20;;;;;;;29.48;35.09;97072.56;5031286;28;20029;-39
2021/06/06 01:21:08;;;;;;;1.35;1.17;;;;;;;29.47;35.11;97065.59;5032200;28;20675;-34
2021/06/06 01:23:52;;;;;;;1.10;1.00;;;;;;;29.47;35.16;97065.59;5041768;28;20044;-38
2021/06/06 01:26:29;;;;;;;1.73;1.00;;;;;;;29.48;35.31;97067.28;5032135;28;20044;-38
2021/06/06 01:28:58;;;;;;;2.63;1.30;;;;;;;29.48;35.06;97055.88;5042615;28;20048;-35
2021/06/06 01:31:24;;;;;;;1.25;0.98;;;;;;;29.48;35.41;97059.38;5022657;28;20043;-33
2021/06/06 01:33:55;;;;;;;1.10;1.00;;;;;;;29.47;35.06;97059.47;5021369;28;20037;-31
2021/06/06 01:36:31;;;;;;;2.92;1.15;;;;;;;29.47;35.29;97055.03;5021408;28;20025;-32
2021/06/06 01:38:59;;;;;;;1.65;1.25;;;;;;;29.47;35.05;97055.03;5029752;28;20032;-34
2021/06/06 01:41:27;;;;;;;1.30;1.17;;;;;;;29.48;35.36;97054.09;5023228;28;20643;-34
2021/06/06 01:43:54;;;;;;;2.10;1.20;;;;;;;29.47;35.29;97047.13;5016454;28;20029;-34
2021/06/06 01:46:27;;;;;;;1.63;1.08;;;;;;;29.46;35.30;97045.44;5027430;28;20036;-33
2021/06/06 01:48:53;;;;;;;1.52;1.10;;;;;;;29.47;35.11;97049.75;5027735;28;20029;-34
2021/06/06 01:51:29;;;;;;;1.38;1.08;;;;;;;29.46;35.16;97056.00;5020534;28;20036;-33
2021/06/06 01:53:55;;;;;;;0.98;0.98;;;;;;;29.46;35.40;97044.56;5040263;28;20035;-34
2021/06/06 01:56:26;;;;;;;1.30;1.20;;;;;;;29.45;35.03;97051.63;5043099;28;20033;-34
2021/06/06 01:58:56;;;;;;;1.48;0.95;;;;;;;29.42;35.09;97036.00;5020742;28;20081;-34
2021/06/06 02:01:22;;;;;;;1.55;1.30;;;;;;;29.46;35.31;97050.72;5042667;28;20499;-36
2021/06/06 02:03:53;;;;;;;1.75;1.15;;;;;;;29.46;35.22;97047.22;5032205;28;20032;-37
2021/06/06 02:06:19;;;;;;;1.00;1.00;;;;;;;29.46;35.26;97053.34;5041988;28;20090;-37
2021/06/06 02:08:45;;;;;;;1.23;1.10;;;;;;;29.46;35.44;97039.28;5027933;28;20044;-38
2021/06/06 02:11:30;;;;;;;1.08;1.00;;;;;;;29.47;35.22;97049.75;5020042;28;20033;-37
2021/06/06 02:13:59;;;;;;;1.20;1.10;;;;;;;29.47;35.08;97048.91;5042811;28;20051;-36
2021/06/06 02:16:28;;;;;;;2.50;1.20;;;;;;;29.45;35.39;97046.34;5019625;28;21169;-39
2021/06/06 02:18:54;;;;;;;1.67;1.30;;;;;;;29.41;35.12;97034.28;5022143;28;20718;-37
2021/06/06 02:21:19;;;;;;;1.15;1.00;;;;;;;29.46;34.99;97042.78;5029610;28;20032;-35
2021/06/06 02:23:45;;;;;;;1.10;0.90;;;;;;;29.46;35.34;97041.94;5026259;28;20021;-34
2021/06/06 02:26:17;;;;;;;1.58;1.05;;;;;;;29.45;35.04;97041.06;5001062;28;20288;-33
2021/06/06 02:28:58;;;;;;;1.08;0.98;;;;;;;29.45;34.96;97041.06;5014249;28;20147;-34
2021/06/06 02:31:42;;;;;;;1.27;1.00;;;;;;;29.46;35.34;97042.78;5039414;28;20120;-35
2021/06/06 02:34:15;;;;;;;2.25;1.10;;;;;;;29.45;35.31;97038.44;5026680;28;20037;-34
2021/06/06 02:36:42;;;;;;;1.00;0.90;;;;;;;29.45;35.39;97035.78;5031792;28;20075;-32
2021/06/06 02:39:22;;;;;;;1.02;0.90;;;;;;;29.44;35.20;97036.75;5025109;28;20056;-34
2021/06/06 02:41:51;;;;;;;1.83;1.10;;;;;;;29.45;35.17;97040.25;5042868;28;20510;-35
2021/06/06 02:44:22;;;;;;;2.10;1.10;;;;;;;29.44;35.10;97042.03;5033065;28;20036;-36
2021/06/06 02:46:48;;;;;;;1.17;1.08;;;;;;;29.44;35.15;97046.44;5014893;28;20028;-35
2021/06/06 02:49:19;;;;;;;4.45;1.00;;;;;;;29.44;35.24;97039.38;5026887;28;20037;-34
2021/06/06 02:51:57;;;;;;;2.30;0.93;;;;;;;29.45;35.36;97040.25;5031248;28;20551;-35
2021/06/06 02:54:29;;;;;;;2.97;1.15;;;;;;;29.44;35.07;97034.09;5027755;28;20028;-38
2021/06/06 02:56:57;;;;;;;1.25;1.15;;;;;;;29.44;35.28;97038.53;5038200;28;20033;-40
2021/06/06 02:59:39;;;;;;;1.30;1.20;;;;;;;29.42;34.92;97030.72;5040933;28;20681;-35
2021/06/06 03:02:12;;;;;;;1.23;1.10;;;;;;;29.42;35.22;97030.72;5012609;28;20040;-34
2021/06/06 03:04:38;;;;;;;1.63;1.10;;;;;;;29.42;34.97;97030.72;5003366;28;20124;-31
2021/06/06 03:07:11;;;;;;;1.10;1.00;;;;;;;29.42;35.03;97036.00;5025095;28;20384;-33
2021/06/06 03:09:37;;;;;;;0.82;0.82;;;;;;;29.43;35.26;97026.28;5029182;28;20078;-35
2021/06/06 03:12:05;;;;;;;2.17;1.10;;;;;;;29.42;35.15;97027.22;5023962;28;20029;-37
2021/06/06 03:14:31;;;;;;;1.08;0.82;;;;;;;29.43;35.13;97024.50;4997993;28;20140;-40
2021/06/06 03:17:27;;;;;;;2.22;0.98;;;;;;;29.42;35.21;97025.44;5028602;28;20029;-41
2021/06/06 03:19:54;;;;;;;1.65;1.00;;;;;;;29.41;35.22;97029.00;5021005;28;20163;-34
2021/06/06 03:22:22;;;;;;;1.00;0.90;;;;;;;29.41;35.15;97023.72;5011729;28;20115;-37
2021/06/06 03:24:53;;;;;;;0.90;0.90;;;;;;;29.40;35.27;97026.50;5025600;28;20037;-34
2021/06/06 03:27:20;;;;;;;1.80;0.95;;;;;;;29.42;34.95;97030.72;5024991;28;20729;-33
2021/06/06 03:30:15;;;;;;;1.42;0.85;;;;;;;29.41;35.00;97022.91;5027068;28;20969;-37
2021/06/06 03:32:41;;;;;;;1.55;0.90;;;;;;;29.41;34.93;97023.72;4996548;28;20379;-32
2021/06/06 03:35:07;;;;;;;0.95;0.77;;;;;;;29.40;35.14;97022.03;5013210;28;20020;-37
2021/06/06 03:37:32;;;;;;;0.90;0.90;;;;;;;29.40;34.97;97019.41;5024845;28;20025;-36
2021/06/06 03:39:58;;;;;;;3.00;1.05;;;;;;;29.40;35.22;97015.94;5035313;28;20052;-35
2021/06/06 03:42:24;;;;;;;1.77;1.08;;;;;;;29.40;34.97;97021.22;5029624;28;20025;-35
2021/06/06 03:44:49;;;;;;;2.35;0.80;;;;;;;29.40;35.06;97022.03;5032647;28;20167;-36
2021/06/06 03:47:14;;;;;;;1.13;1.02;;;;;;;29.39;35.19;97030.91;5028079;28;23027;-37
2021/06/06 03:49:40;;;;;;;0.75;0.75;;;;;;;29.40;34.95;97023.84;5030107;28;20406;-33
2021/06/06 03:52:05;;;;;;;0.98;0.90;;;;;;;29.40;35.24;97024.69;5027284;28;20481;-37
2021/06/06 03:54:31;;;;;;;1.13;0.80;;;;;;;29.41;35.06;97023.72;5033622;28;20028;-33
2021/06/06 03:56:57;;;;;;;1.95;0.77;;;;;;;29.40;34.99;97022.03;5030510;28;20036;-34
2021/06/06 03:59:22;;;;;;;1.00;1.00;;;;;;;29.40;35.22;97026.50;5028175;28;20032;-33
2021/06/06 04:01:48;;;;;;;0.90;0.90;;;;;;;29.40;35.08;97027.31;5029925;28;20041;-32
2021/06/06 04:04:13;;;;;;;1.00;0.90;;;;;;;29.40;34.86;97024.69;5031281;28;20043;-35
2021/06/06 04:06:39;;;;;;;1.23;1.05;;;;;;;29.39;34.88;97020.34;5033208;28;20060;-33
2021/06/06 04:09:05;;;;;;;0.90;0.77;;;;;;;29.39;35.15;97023.00;5032660;28;20039;-32
2021/06/06 04:11:31;;;;;;;1.00;0.90;;;;;;;29.39;34.91;97017.72;5035006;28;20070;-35
2021/06/06 04:13:56;;;;;;;1.55;0.95;;;;;;;29.39;35.16;97020.34;5022602;28;20029;-36
2021/06/06 04:16:21;;;;;;;0.85;0.70;;;;;;;29.39;35.02;97011.56;5036984;28;20539;-34
2021/06/06 04:18:47;;;;;;;2.08;0.80;;;;;;;29.39;35.09;97017.72;5036243;28;20021;-35
2021/06/06 04:21:15;;;;;;;1.65;0.90;;;;;;;29.39;35.22;97023.00;5031126;28;20114;-35
2021/06/06 04:23:40;;;;;;;1.23;0.88;;;;;;;29.39;34.90;97015.06;5031425;28;20037;-37
2021/06/06 04:26:06;;;;;;;0.82;0.73;;;;;;;29.39;34.86;97024.78;5027556;28;20091;-34
2021/06/06 04:28:32;;;;;;;0.70;0.60;;;;;;;29.38;34.90;97021.31;5034638;28;20024;-33
2021/06/06 04:30:57;;;;;;;0.40;0.40;;;;;;;29.39;35.05;97012.44;5013808;28;20036;-33
2021/06/06 04:33:23;;;;;;;0.68;0.65;;;;;;;29.38;35.17;97023.94;5032140;28;20601;-35
2021/06/06 04:35:48;;;;;;;0.57;0.55;;;;;;;29.39;35.13;97020.34;5033177;28;20032;-37
2021/06/06 04:38:16;;;;;;;0.50;0.50;;;;;;;29.38;34.77;97018.66;5028786;28;20157;-31
2021/06/06 04:40:41;;;;;;;0.50;0.50;;;;;;;29.37;34.81;97016.94;5037973;28;20862;-33
2021/06/06 04:43:07;;;;;;;0.57;0.57;;;;;;;29.37;34.82;97016.94;5031050;28;20029;-34
2021/06/06 04:45:32;;;;;;;0.65;0.63;;;;;;;29.36;35.10;97015.28;5038635;28;20118;-32
2021/06/06 04:48:13;;;;;;;0.80;0.50;;;;;;;29.37;35.14;97011.66;5045584;28;20082;-33
2021/06/06 04:50:38;;;;;;;0.65;0.63;;;;;;;29.37;34.89;97011.66;5030716;28;20025;-36
2021/06/06 04:53:04;;;;;;;0.75;0.63;;;;;;;29.37;35.09;97014.31;5019469;28;20025;-36
2021/06/06 04:55:29;;;;;;;0.77;0.70;;;;;;;29.37;34.92;97019.59;5028451;28;20552;-32
2021/06/06 04:57:55;;;;;;;0.82;0.65;;;;;;;29.37;34.81;97011.66;5030922;28;20988;-33
2021/06/06 05:00:24;;;;;;;0.63;0.60;;;;;;;29.36;34.92;97015.28;5028666;28;20021;-31
2021/06/06 05:02:51;;;;;;;1.23;0.68;;;;;;;29.36;34.89;97007.34;5021708;28;20033;-36
2021/06/06 05:05:16;;;;;;;0.50;0.50;;;;;;;29.37;35.07;97016.13;5030809;28;20062;-32
2021/06/06 05:07:44;;;;;;;0.57;0.57;;;;;;;29.37;34.93;97010.84;5031454;28;20119;-34
2021/06/06 05:10:10;;;;;;;0.60;0.45;;;;;;;29.36;34.87;97010.00;5016030;28;20040;-35
2021/06/06 05:12:35;;;;;;;0.60;0.60;;;;;;;29.37;34.78;97006.41;5039313;28;20035;-34
2021/06/06 05:15:01;;;;;;;1.35;0.75;;;;;;;29.37;34.79;97000.28;5030321;28;20028;-37
2021/06/06 05:17:26;;;;;;;0.50;0.50;;;;;;;29.36;34.96;97004.72;5025259;28;20033;-28
2021/06/06 05:19:51;;;;;;;1.33;0.70;;;;;;;29.37;34.79;97010.84;5034793;28;20934;-35
2021/06/06 05:22:17;;;;;;;0.75;0.40;;;;;;;29.37;35.06;97011.66;5023314;28;20052;-31
2021/06/06 05:24:42;;;;;;;0.93;0.50;;;;;;;29.36;34.93;97007.34;5028852;28;20049;-32
2021/06/06 05:27:08;;;;;;;1.65;0.60;;;;;;;29.35;34.95;97005.66;5030560;28;20519;-34
2021/06/06 05:29:33;;;;;;;1.02;0.77;;;;;;;29.35;35.15;97010.94;5042084;28;20029;-35
2021/06/06 05:32:01;;;;;;;1.58;0.57;;;;;;;29.36;35.02;97015.28;5030200;28;20037;-36
2021/06/06 05:34:26;;;;;;;0.60;0.60;;;;;;;29.36;35.07;97012.63;5026242;28;20032;-34
2021/06/06 05:36:52;;;;;;;0.45;0.45;;;;;;;29.37;34.83;97016.13;5023445;28;20036;-36
2021/06/06 05:39:17;;;;;;;0.63;0.40;;;;;;;29.36;35.00;97015.28;5035012;28;20025;-36
2021/06/06 05:41:43;;;;;;;1.42;0.60;;;;;;;29.36;34.84;97015.28;5035250;28;20574;-34
2021/06/06 05:44:08;;;;;;;0.88;0.65;;;;;;;29.36;35.08;97015.28;5029428;28;20028;-35
2021/06/06 05:46:34;;;;;;;0.65;0.60;;;;;;;29.37;35.13;97016.13;5026207;28;20020;-36
2021/06/06 05:48:59;;;;;;;2.13;0.80;;;;;;;29.36;35.15;97020.53;5035254;28;20446;-35
2021/06/06 05:51:24;;;;;;;0.88;0.57;;;;;;;29.37;35.08;97021.41;5030779;28;20610;-30
2021/06/06 05:53:51;;;;;;;1.05;0.63;;;;;;;29.36;34.95;97017.91;5033585;28;20035;-35
2021/06/06 05:56:16;;;;;;;1.20;0.75;;;;;;;29.37;34.85;97022.22;5021204;28;20582;-34
2021/06/06 05:58:41;;;;;;;1.27;0.70;;;;;;;29.36;35.08;97015.28;5042165;28;20091;-33
2021/06/06 06:01:07;;;;;;;0.80;0.70;;;;;;;29.37;34.93;97016.94;5031431;28;20045;-37
2021/06/06 06:03:32;;;;;;;3.28;0.98;;;;;;;29.36;35.18;97017.91;5031088;28;20120;-34
2021/06/06 06:05:58;;;;;;;1.40;0.73;;;;;;;29.36;35.12;97015.28;5034158;28;20039;-35
2021/06/06 06:08:34;;;;;;;1.48;0.80;;;;;;;29.36;34.97;97012.63;5041692;28;20024;-36
2021/06/06 06:10:59;;;;;;;4.13;0.90;;;;;;;29.36;35.05;97020.53;5025774;28;20127;-33
2021/06/06 06:13:26;;;;;;;2.70;1.02;;;;;;;29.35;35.17;97013.56;5029633;28;20017;-32
2021/06/06 06:15:52;;;;;;;3.45;0.80;;;;;;;29.36;34.89;97014.44;5030547;28;20740;-35
2021/06/06 06:18:20;;;;;;;2.63;0.98;;;;;;;29.36;35.05;97012.63;5032904;28;20091;-35
2021/06/06 06:20:45;;;;;;;1.80;0.90;;;;;;;29.36;35.03;97010.00;5028266;28;20566;-37
2021/06/06 06:23:11;;;;;;;1.17;0.73;;;;;;;29.36;34.92;97017.91;5031817;28;20029;-34
2021/06/06 06:25:36;;;;;;;1.83;0.95;;;;;;;29.37;35.05;97022.22;5032354;28;20036;-34
2021/06/06 06:28:02;;;;;;;0.70;0.70;;;;;;;29.36;35.14;97025.81;5030377;28;20447;-33
2021/06/06 06:30:30;;;;;;;1.58;1.00;;;;;;;29.35;35.05;97018.84;5023764;28;20029;-33
2021/06/06 06:32:56;;;;;;;1.50;1.00;;;;;;;29.34;35.26;97025.09;5029108;28;20029;-34
2021/06/06 06:35:21;;;;;;;1.25;1.02;;;;;;;29.34;35.09;97025.91;5022131;28;20032;-35
2021/06/06 06:37:47;;;;;;;12.60;1.50;;;;;;;29.34;35.16;97022.44;5039928;28;20523;-34
2021/06/06 06:40:13;;;;;;;2.67;1.50;;;;;;;29.33;35.15;97024.22;5033218;28;20041;-36
2021/06/06 06:42:39;;;;;;;7.25;1.70;;;;;;;29.35;35.29;97032.06;5030445;28;20040;-34
2021/06/06 06:45:08;;;;;;;3.58;1.85;;;;;;;29.31;35.13;97025.28;5013317;28;20772;-35
2021/06/06 06:47:34;;;;;;;3.97;1.88;;;;;;;29.34;35.50;97033.00;5039536;28;20055;-32
2021/06/06 06:49:59;;;;;;;4.75;1.80;;;;;;;29.34;35.71;97033.00;5023452;28;20111;-34
2021/06/06 06:52:25;;;;;;;6.18;1.80;;;;;;;29.34;35.84;97033.00;5024184;28;20025;-34
2021/06/06 06:54:50;;;;;;;7.30;2.03;;;;;;;29.35;35.79;97034.69;5025732;28;20112;-37
2021/06/06 06:57:16;;;;;;;3.05;1.80;;;;;;;29.36;35.73;97036.38;5027159;28;20051;-37
2021/06/06 06:59:41;;;;;;;8.77;2.35;;;;;;;29.36;35.52;97035.56;5042730;28;20083;-38
2021/06/06 07:02:07;;;;;;;4.13;1.70;;;;;;;29.36;35.52;97033.75;5029919;28;20043;-34
2021/06/06 07:04:32;;;;;;;5.32;1.67;;;;;;;29.37;35.42;97031.97;4999944;28;20063;-36
2021/06/06 07:06:57;;;;;;;2.75;1.70;;;;;;;29.37;35.57;97026.69;5027017;28;20020;-39
2021/06/06 07:09:24;;;;;;;2.80;1.63;;;;;;;29.37;35.56;97030.16;4998954;28;20725;-37
2021/06/06 07:11:49;;;;;;;4.30;1.85;;;;;;;29.37;35.71;97026.69;5024300;28;20342;-33
2021/06/06 07:14:15;;;;;;;2.90;1.67;;;;;;;29.37;35.52;97039.88;5019680;28;20715;-38
2021/06/06 07:16:40;;;;;;;7.47;1.80;;;;;;;29.36;35.51;97036.38;5029493;28;20036;-35
2021/06/06 07:19:06;;;;;;;3.35;1.60;;;;;;;29.37;35.57;97043.34;5023741;28;20025;-33
2021/06/06 07:21:31;;;;;;;3.38;1.75;;;;;;;29.37;35.51;97031.97;5023815;28;20037;-38
2021/06/06 07:23:57;;;;;;;5.25;1.70;;;;;;;29.38;35.79;97041.56;5036923;28;20017;-40
2021/06/06 07:26:29;;;;;;;2.90;1.80;;;;;;;29.38;35.51;97045.06;5023537;28;20488;-34
2021/06/06 07:28:57;;;;;;;3.22;1.70;;;;;;;29.38;35.74;97039.78;5039395;28;20044;-38
2021/06/06 07:31:22;;;;;;;2.85;1.80;;;;;;;29.39;35.67;97046.75;5021646;28;20066;-31
2021/06/06 07:33:48;;;;;;;1.60;1.40;;;;;;;29.38;35.75;97039.78;5028131;28;20583;-36
2021/06/06 07:36:16;;;;;;;4.60;1.75;;;;;;;29.39;35.77;97044.13;5039546;28;20051;-38
2021/06/06 07:38:42;;;;;;;4.05;1.73;;;;;;;29.39;35.63;97036.19;5021857;28;20094;-32
2021/06/06 07:41:07;;;;;;;1.98;1.73;;;;;;;29.39;35.60;97041.47;5025161;28;20036;-33
2021/06/06 07:43:33;;;;;;;1.45;1.30;;;;;;;29.38;35.59;97039.78;5028901;28;20078;-31
2021/06/06 07:46:00;;;;;;;1.75;1.50;;;;;;;29.38;35.58;97041.56;5028184;28;20270;-34
2021/06/06 07:48:25;;;;;;;1.83;1.40;;;;;;;29.31;35.66;97033.19;5027404;28;20647;-35
2021/06/06 07:50:51;;;;;;;1.95;1.60;;;;;;;29.38;35.81;97039.78;5027230;28;20045;-36
2021/06/06 07:53:17;;;;;;;4.22;1.48;;;;;;;29.39;35.74;97046.75;5029407;28;20031;-34
2021/06/06 07:55:42;;;;;;;2.92;1.85;;;;;;;29.38;35.48;97042.44;5023398;28;20418;-35
2021/06/06 07:58:07;;;;;;;3.35;1.50;;;;;;;29.39;35.58;97046.75;5027437;28;20037;-37
2021/06/06 08:00:42;;;;;;;1.80;1.38;;;;;;;29.38;35.56;97039.78;5026747;28;20048;-35
2021/06/06 08:03:07;;;;;;;1.83;1.58;;;;;;;29.38;35.82;97050.34;5027030;28;20077;-34
2021/06/06 08:05:33;;;;;;;2.53;1.60;;;;;;;29.38;35.66;97039.78;5040415;28;20032;-35
2021/06/06 08:07:59;;;;;;;4.63;1.65;;;;;;;29.38;35.56;97045.06;5027518;28;20016;-34
2021/06/06 08:10:30;;;;;;;1.50;1.40;;;;;;;29.39;35.72;97051.19;5029163;28;20029;-39
2021/06/06 08:12:55;;;;;;;1.27;1.17;;;;;;;29.39;35.50;97041.47;5043192;28;20025;-35
2021/06/06 08:15:21;;;;;;;1.90;1.60;;;;;;;29.35;35.67;97050.53;5031959;28;20021;-38
2021/06/06 08:17:47;;;;;;;4.57;1.80;;;;;;;29.37;35.55;97043.34;5030209;28;20495;-34
2021/06/06 08:20:18;;;;;;;11.45;3.03;;;;;;;29.35;34.97;97050.53;5033349;28;20287;-36
2021/06/06 08:22:44;;;;;;;7.32;3.17;;;;;;;29.23;34.36;97044.25;5030320;28;20044;-35
2021/06/06 08:25:11;;;;;;;5.07;3.10;;;;;;;29.10;34.07;97051.25;5030978;28;20033;-36
2021/06/06 08:27:37;;;;;;;5.47;3.33;;;;;;;28.91;34.23;97058.50;5027242;28;20028;-37
2021/06/06 08:30:36;;;;;;;6.20;3.40;;;;;;;28.63;34.40;97054.91;5033686;28;20029;-37
2021/06/06 08:33:01;;;;;;;4.65;2.83;;;;;;;28.38;35.09;97050.28;5028043;28;20052;-38
2021/06/06 08:35:26;;;;;;;5.43;2.38;;;;;;;28.22;35.38;97050.31;5029043;28;20548;-33
2021/06/06 08:37:52;;;;;;;8.40;2.10;;;;;;;28.13;35.56;97052.56;5030506;28;20775;-36
2021/06/06 08:40:45;;;;;;;3.92;2.33;;;;;;;28.09;35.79;97045.75;5025817;28;20407;-32
2021/06/06 08:43:10;;;;;;;8.82;1.90;;;;;;;28.09;35.99;97037.84;5023792;28;20025;-33
2021/06/06 08:45:39;;;;;;;3.28;1.33;;;;;;;28.11;36.04;97046.50;5028323;28;20033;-36
2021/06/06 08:48:06;;;;;;;4.15;1.80;;;;;;;28.15;35.77;97045.38;5027662;28;20056;-33
2021/06/06 08:50:37;;;;;;;3.95;1.95;;;;;;;28.16;35.78;97036.56;5030882;28;20753;-35
2021/06/06 08:53:05;;;;;;;2.90;1.60;;;;;;;28.23;35.92;97041.47;5028866;28;20084;-35
2021/06/06 08:55:34;;;;;;;7.78;1.80;;;;;;;28.28;35.85;97032.38;5032121;28;20033;-34
2021/06/06 08:58:40;;;;;;;10.52;2.00;;;;;;;28.32;36.00;97043.56;5024515;28;20033;-35
2021/06/06 09:01:44;;;;;;;4.78;2.35;;;;;;;28.37;35.95;97038.03;5022089;28;20033;-33
2021/06/06 09:04:21;;;;;;;5.22;1.70;;;;;;;28.42;36.08;97039.44;5032611;28;20159;-34
2021/06/06 09:06:52;;;;;;;2.83;1.80;;;;;;;28.47;35.74;97040.94;5035506;28;20064;-36
2021/06/06 09:09:22;;;;;;;1.55;1.30;;;;;;;28.51;35.85;97045.09;5019829;28;20123;-34
2021/06/06 09:11:47;;;;;;;3.33;1.50;;;;;;;28.55;35.73;97044.84;5032559;28;20029;-35
2021/06/06 09:14:12;;;;;;;2.83;1.42;;;;;;;28.58;35.90;97046.44;5028143;28;20078;-33
2021/06/06 09:16:57;;;;;;;3.30;1.38;;;;;;;28.62;35.86;97052.34;5036439;28;20025;-35
2021/06/06 09:19:22;;;;;;;3.67;1.52;;;;;;;28.66;35.60;97049.47;5031963;28;20040;-34
2021/06/06 09:21:59;;;;;;;2.80;1.73;;;;;;;28.67;35.82;97045.88;5039958;28;20510;-31
2021/06/06 09:24:38;;;;;;;3.55;1.80;;;;;;;28.72;35.84;97050.03;5048418;28;20025;-32
2021/06/06 09:27:22;;;;;;;4.72;1.63;;;;;;;28.73;35.62;97055.22;5033895;28;20079;-35
2021/06/06 09:30:06;;;;;;;6.85;1.67;;;;;;;28.77;35.90;97058.50;5031734;28;20028;-35
2021/06/06 09:32:32;;;;;;;5.57;1.50;;;;;;;28.78;35.78;97058.41;5032222;28;20135;-35
2021/06/06 09:34:58;;;;;;;2.15;1.48;;;;;;;28.81;35.52;97060.00;5033251;28;20601;-35
2021/06/06 09:37:26;;;;;;;4.70;1.30;;;;;;;28.82;35.84;97059.91;5046764;28;20460;-36
2021/06/06 09:39:58;;;;;;;7.70;1.45;;;;;;;28.84;35.62;97059.81;5029877;28;20032;-36
2021/06/06 09:42:26;;;;;;;3.30;1.33;;;;;;;28.85;35.55;97066.78;5035986;28;20609;-35
2021/06/06 09:45:08;;;;;;;1.90;1.40;;;;;;;28.87;35.50;97062.25;5034970;28;20032;-35
2021/06/06 09:47:33;;;;;;;2.58;1.55;;;;;;;28.89;35.43;97060.41;5036720;28;20044;-35
2021/06/06 09:50:16;;;;;;;2.72;1.48;;;;;;;28.90;35.55;97062.09;5032561;28;20287;-34
2021/06/06 09:52:42;;;;;;;2.58;1.02;;;;;;;28.91;35.47;97063.78;5033975;28;20029;-38
2021/06/06 09:55:24;;;;;;;2.65;1.20;;;;;;;28.94;35.48;97065.38;5035663;28;20040;-33
2021/06/06 09:57:51;;;;;;;3.58;1.20;;;;;;;28.93;35.44;97051.38;5038475;28;20086;-36
2021/06/06 10:00:19;;;;;;;5.35;1.50;;;;;;;28.96;35.65;97060.88;5033012;28;20025;-35
2021/06/06 10:02:55;;;;;;;1.65;1.27;;;;;;;28.98;35.46;97058.97;5039534;28;20025;-34
2021/06/06 10:05:23;;;;;;;1.45;1.20;;;;;;;29.01;35.48;97060.56;5025638;28;20059;-34
2021/06/06 10:08:06;;;;;;;2.63;1.63;;;;;;;29.02;35.38;97067.56;5036408;28;20232;-35
2021/06/06 10:10:40;;;;;;;3.03;1.55;;;;;;;29.03;35.60;97067.44;5027412;28;20458;-36
2021/06/06 10:13:13;;;;;;;3.58;1.83;;;;;;;29.04;35.32;97068.31;5035450;28;20183;-34
2021/06/06 10:15:51;;;;;;;1.60;1.30;;;;;;;29.06;35.40;97066.44;5028760;28;20032;-38
2021/06/06 10:18:22;;;;;;;3.13;2.03;;;;;;;29.02;35.33;97076.31;5025004;28;20531;-33
2021/06/06 10:21:01;;;;;;;1.85;1.45;;;;;;;29.07;35.68;97078.69;5041968;28;20270;-36
2021/06/06 10:23:32;;;;;;;3.03;1.90;;;;;;;29.06;35.43;97074.34;5035576;28;20181;-34
2021/06/06 10:26:18;;;;;;;1.88;1.63;;;;;;;29.09;35.45;97076.78;5027916;28;20037;-37
2021/06/06 10:29:16;;;;;;;3.80;1.63;;;;;;;29.11;35.33;97079.31;5034412;28;20028;-36
2021/06/06 10:31:45;;;;;;;2.97;1.52;;;;;;;29.11;35.35;97088.09;5031983;28;20048;-36
2021/06/06 10:34:24;;;;;;;1.60;1.40;;;;;;;29.11;35.46;97085.47;5031097;28;20048;-34
2021/06/06 10:36:49;;;;;;;2.00;1.80;;;;;;;29.12;35.33;97081.88;5028101;28;20054;-36
2021/06/06 10:39:20;;;;;;;1.60;1.50;;;;;;;29.12;35.57;97087.16;5037975;28;20457;-36
2021/06/06 10:42:01;;;;;;;2.50;1.77;;;;;;;29.14;35.64;97090.53;5033027;28;20053;-35
2021/06/06 10:44:33;;;;;;;1.80;1.67;;;;;;;29.14;35.40;97085.25;5025828;28;20149;-35
2021/06/06 10:47:07;;;;;;;2.17;1.65;;;;;;;29.15;35.44;97083.47;5037317;28;20043;-36
2021/06/06 10:49:50;;;;;;;3.13;1.30;;;;;;;29.15;35.47;97086.97;5022007;28;20485;-38
2021/06/06 10:52:32;;;;;;;1.55;1.30;;;;;;;29.16;35.27;97083.38;5025673;28;20082;-35
2021/06/06 10:55:12;;;;;;;1.52;1.42;;;;;;;29.17;35.52;97078.94;5034371;28;20037;-36
2021/06/06 10:57:37;;;;;;;1.75;1.52;;;;;;;29.17;35.46;97085.06;5024906;28;20057;-32
2021/06/06 11:00:24;;;;;;;2.35;1.60;;;;;;;29.17;35.51;97082.44;5015035;28;20036;-31
2021/06/06 11:02:49;;;;;;;1.80;1.40;;;;;;;29.18;35.54;97076.19;5035252;28;20079;-34
2021/06/06 11:05:36;;;;;;;1.70;1.60;;;;;;;29.20;35.37;97086.66;5030429;28;20028;-37
2021/06/06 11:08:01;;;;;;;2.08;1.58;;;;;;;29.20;35.25;97078.75;5033470;28;20266;-37
2021/06/06 11:10:34;;;;;;;2.38;1.60;;;;;;;29.20;35.52;97071.69;5027583;28;20107;-31
2021/06/06 11:13:14;;;;;;;2.45;1.45;;;;;;;29.21;35.57;97068.09;5034744;28;20032;-36
2021/06/06 11:16:19;;;;;;;1.70;1.33;;;;;;;29.23;35.28;97061.88;5031817;28;20127;-32
2021/06/06 11:18:59;;;;;;;2.45;1.60;;;;;;;29.23;35.55;97064.50;5034929;28;20040;-33
2021/06/06 11:21:34;;;;;;;1.33;1.23;;;;;;;29.24;35.33;97063.56;5026178;28;20031;-34
2021/06/06 11:24:01;;;;;;;1.95;1.70;;;;;;;29.24;35.52;97055.63;5029041;28;20701;-34
2021/06/06 11:26:32;;;;;;;1.90;1.63;;;;;;;29.24;35.42;97053.84;5047468;28;20029;-35
2021/06/06 11:29:08;;;;;;;2.28;1.75;;;;;;;29.24;35.40;97055.63;5033184;28;20130;-35
2021/06/06 11:31:34;;;;;;;1.60;1.50;;;;;;;29.24;35.40;97053.00;5033679;28;20036;-33
2021/06/06 11:34:01;;;;;;;1.75;1.40;;;;;;;29.25;35.49;97060.00;5046968;28;20641;-36
2021/06/06 11:36:36;;;;;;;1.30;1.13;;;;;;;29.25;35.28;97049.44;5037639;28;20727;-36
2021/06/06 11:39:30;;;;;;;1.67;1.58;;;;;;;29.25;35.25;97052.06;5019307;28;20597;-33
2021/06/06 11:41:55;;;;;;;2.13;1.85;;;;;;;29.25;35.37;97047.63;5017931;28;20698;-31
2021/06/06 11:44:27;;;;;;;4.22;2.00;;;;;;;29.26;35.38;97051.13;5018286;28;20139;-38
2021/06/06 11:46:55;;;;;;;;;;;;;;;29.18;35.05;97044.53;5023145;28;20032;-33